sensor_id;sensor_type;location;lat;lon;timestamp;temperature;humidity
6752;DHT22;3413;47.680;9.166;2023-02-11T00:02:15;3.60;88.70
6752;DHT22;3413;47.680;9.166;2023-02-11T00:07:17;3.60;88.60
6752;DHT22;3413;47.680;9.166;2023-02-11T00:12:19;3.60;88.60
6752;DHT22;3413;47.680;9.166;2023-02-11T00:17:20;3.60;88.50
6752;DHT22;3413;47.680;9.166;2023-02-11T00:22:22;3.60;88.50
6752;DHT22;3413;47.680;9.166;2023-02-11T00:27:24;3.50;88.40
6752;DHT22;3413;47.680;9.166;2023-02-11T00:32:26;3.50;88.40
6752;DHT22;3413;47.680;9.166;2023-02-11T00:37:28;3.40;88.40
6752;DHT22;3413;47.680;9.166;2023-02-11T00:42:30;3.40;88.40
6752;DHT22;3413;47.680;9.166;2023-02-11T00:47:32;3.50;88.50
6752;DHT22;3413;47.680;9.166;2023-02-11T00:52:34;3.40;88.40
6752;DHT22;3413;47.680;9.166;2023-02-11T00:57:36;3.50;88.50
6752;DHT22;3413;47.680;9.166;2023-02-11T01:02:38;3.40;88.40
6752;DHT22;3413;47.680;9.166;2023-02-11T01:07:40;3.40;88.40
6752;DHT22;3413;47.680;9.166;2023-02-11T01:12:42;3.40;88.40
6752;DHT22;3413;47.680;9.166;2023-02-11T08:06:40;2.20;89.30
6752;DHT22;3413;47.680;9.166;2023-02-11T08:23:18;2.70;90.20
6752;DHT22;3413;47.680;9.166;2023-02-11T08:28:20;2.90;90.20
6752;DHT22;3413;47.680;9.166;2023-02-11T08:33:23;3.00;90.30
6752;DHT22;3413;47.680;9.166;2023-02-11T08:38:28;3.10;90.60
6752;DHT22;3413;47.680;9.166;2023-02-11T08:43:34;3.20;90.60
6752;DHT22;3413;47.680;9.166;2023-02-11T08:48:56;3.40;90.80
6752;DHT22;3413;47.680;9.166;2023-02-11T08:54:03;3.70;90.80
6752;DHT22;3413;47.680;9.166;2023-02-11T08:59:06;3.90;90.80
6752;DHT22;3413;47.680;9.166;2023-02-11T09:05:39;4.10;90.90
6752;DHT22;3413;47.680;9.166;2023-02-11T09:10:54;4.00;90.90
6752;DHT22;3413;47.680;9.166;2023-02-11T09:17:33;4.10;91.00
6752;DHT22;3413;47.680;9.166;2023-02-11T09:24:03;4.30;91.10
6752;DHT22;3413;47.680;9.166;2023-02-11T09:30:55;4.40;91.10
6752;DHT22;3413;47.680;9.166;2023-02-11T09:37:45;4.60;91.20
6752;DHT22;3413;47.680;9.166;2023-02-11T09:43:19;4.60;91.40
6752;DHT22;3413;47.680;9.166;2023-02-11T09:54:39;4.80;91.50
6752;DHT22;3413;47.680;9.166;2023-02-11T09:59:46;4.80;91.70
6752;DHT22;3413;47.680;9.166;2023-02-11T10:05:01;4.90;91.90
6752;DHT22;3413;47.680;9.166;2023-02-11T10:10:38;5.00;92.00
6752;DHT22;3413;47.680;9.166;2023-02-11T10:26:19;5.50;92.60
6752;DHT22;3413;47.680;9.166;2023-02-11T10:31:37;5.60;92.60
6752;DHT22;3413;47.680;9.166;2023-02-11T10:36:42;5.70;92.70
6752;DHT22;3413;47.680;9.166;2023-02-11T10:41:52;5.80;92.80
6752;DHT22;3413;47.680;9.166;2023-02-11T10:47:03;6.10;92.80
6752;DHT22;3413;47.680;9.166;2023-02-11T10:52:26;6.30;92.70
6752;DHT22;3413;47.680;9.166;2023-02-11T10:57:49;6.20;92.70
6752;DHT22;3413;47.680;9.166;2023-02-11T11:02:57;6.20;93.10
6752;DHT22;3413;47.680;9.166;2023-02-11T11:08:03;6.40;93.60
6752;DHT22;3413;47.680;9.166;2023-02-11T11:18:26;7.40;94.80
6752;DHT22;3413;47.680;9.166;2023-02-11T11:23:29;7.90;95.10
6752;DHT22;3413;47.680;9.166;2023-02-11T11:29:21;8.40;95.40
6752;DHT22;3413;47.680;9.166;2023-02-11T11:33:59;8.90;95.70
6752;DHT22;3413;47.680;9.166;2023-02-11T11:39:16;9.40;95.90
6752;DHT22;3413;47.680;9.166;2023-02-11T11:44:45;9.70;96.00
6752;DHT22;3413;47.680;9.166;2023-02-11T11:55:17;10.20;95.80
6752;DHT22;3413;47.680;9.166;2023-02-11T12:00:27;10.70;95.90
6752;DHT22;3413;47.680;9.166;2023-02-11T12:11:30;11.20;96.00
6752;DHT22;3413;47.680;9.166;2023-02-11T12:22:09;11.60;96.00
6752;DHT22;3413;47.680;9.166;2023-02-11T12:27:39;11.90;96.00
6752;DHT22;3413;47.680;9.166;2023-02-11T12:43:37;12.30;96.20
6752;DHT22;3413;47.680;9.166;2023-02-11T12:59:04;12.70;96.20
6752;DHT22;3413;47.680;9.166;2023-02-11T13:04:34;13.00;95.90
6752;DHT22;3413;47.680;9.166;2023-02-11T13:09:54;13.10;95.70
6752;DHT22;3413;47.680;9.166;2023-02-11T13:15:06;12.90;95.70
6752;DHT22;3413;47.680;9.166;2023-02-11T13:25:43;13.00;95.80
6752;DHT22;3413;47.680;9.166;2023-02-11T13:30:47;13.20;95.90
6752;DHT22;3413;47.680;9.166;2023-02-11T13:46:26;13.40;95.80
6752;DHT22;3413;47.680;9.166;2023-02-11T13:51:38;13.60;95.70
6752;DHT22;3413;47.680;9.166;2023-02-11T13:56:41;13.40;95.40
6752;DHT22;3413;47.680;9.166;2023-02-11T14:07:29;13.20;95.40
6752;DHT22;3413;47.680;9.166;2023-02-11T14:23:40;13.40;95.40
6752;DHT22;3413;47.680;9.166;2023-02-11T14:28:42;13.40;95.40
6752;DHT22;3413;47.680;9.166;2023-02-11T14:34:06;13.50;95.40
6752;DHT22;3413;47.680;9.166;2023-02-11T14:44:27;13.70;95.50
6752;DHT22;3413;47.680;9.166;2023-02-11T14:49:35;13.70;95.40
6752;DHT22;3413;47.680;9.166;2023-02-11T14:54:41;13.70;95.40
6752;DHT22;3413;47.680;9.166;2023-02-11T14:59:56;13.60;95.20
6752;DHT22;3413;47.680;9.166;2023-02-11T15:15:29;12.70;95.00
6752;DHT22;3413;47.680;9.166;2023-02-11T15:20:33;12.60;94.90
6752;DHT22;3413;47.680;9.166;2023-02-11T15:25:44;12.30;94.70
6752;DHT22;3413;47.680;9.166;2023-02-11T15:31:02;12.20;94.70
6752;DHT22;3413;47.680;9.166;2023-02-11T15:36:05;12.00;94.60
6752;DHT22;3413;47.680;9.166;2023-02-11T15:41:07;12.10;94.50
6752;DHT22;3413;47.680;9.166;2023-02-11T15:46:14;11.90;94.40
6752;DHT22;3413;47.680;9.166;2023-02-11T15:51:26;11.80;94.30
6752;DHT22;3413;47.680;9.166;2023-02-11T18:14:10;9.20;93.10
6752;DHT22;3413;47.680;9.166;2023-02-11T18:19:13;9.20;93.00
6752;DHT22;3413;47.680;9.166;2023-02-11T18:24:15;9.10;92.90
6752;DHT22;3413;47.680;9.166;2023-02-11T18:29:18;9.00;92.80
6752;DHT22;3413;47.680;9.166;2023-02-11T18:34:20;8.90;92.80
6752;DHT22;3413;47.680;9.166;2023-02-11T18:39:22;8.70;92.60
6752;DHT22;3413;47.680;9.166;2023-02-11T18:44:26;8.40;92.50
6752;DHT22;3413;47.680;9.166;2023-02-11T18:49:28;8.20;92.40
6752;DHT22;3413;47.680;9.166;2023-02-11T18:54:30;8.00;92.40
6752;DHT22;3413;47.680;9.166;2023-02-11T18:59:33;7.90;92.30
6752;DHT22;3413;47.680;9.166;2023-02-11T19:04:35;7.80;92.20
6752;DHT22;3413;47.680;9.166;2023-02-11T19:09:38;7.70;92.20
6752;DHT22;3413;47.680;9.166;2023-02-11T19:14:40;7.50;92.10
6752;DHT22;3413;47.680;9.166;2023-02-11T19:19:42;7.40;92.00
6752;DHT22;3413;47.680;9.166;2023-02-11T19:24:45;7.30;92.00
6752;DHT22;3413;47.680;9.166;2023-02-11T19:29:47;7.20;92.00
6752;DHT22;3413;47.680;9.166;2023-02-11T19:34:49;7.00;91.80
6752;DHT22;3413;47.680;9.166;2023-02-11T19:39:52;7.10;91.90
6752;DHT22;3413;47.680;9.166;2023-02-11T19:44:54;7.00;91.80
6752;DHT22;3413;47.680;9.166;2023-02-11T19:49:57;6.90;91.70
6752;DHT22;3413;47.680;9.166;2023-02-11T19:54:59;6.70;91.70
6752;DHT22;3413;47.680;9.166;2023-02-11T20:00:02;6.60;91.60
6752;DHT22;3413;47.680;9.166;2023-02-11T20:05:13;6.40;91.60
6752;DHT22;3413;47.680;9.166;2023-02-11T20:10:18;6.30;91.60
6752;DHT22;3413;47.680;9.166;2023-02-11T20:15:24;6.20;91.60
6752;DHT22;3413;47.680;9.166;2023-02-11T20:20:34;6.20;91.50
6752;DHT22;3413;47.680;9.166;2023-02-11T20:25:48;6.20;91.50
6752;DHT22;3413;47.680;9.166;2023-02-11T20:31:00;6.10;91.50
6752;DHT22;3413;47.680;9.166;2023-02-11T20:36:12;6.00;91.50
6752;DHT22;3413;47.680;9.166;2023-02-11T20:41:22;5.90;91.50
6752;DHT22;3413;47.680;9.166;2023-02-11T20:46:30;6.00;91.50
6752;DHT22;3413;47.680;9.166;2023-02-11T20:51:34;6.00;91.50
6752;DHT22;3413;47.680;9.166;2023-02-11T20:56:37;6.10;91.60
6752;DHT22;3413;47.680;9.166;2023-02-11T21:01:42;6.20;91.50
6752;DHT22;3413;47.680;9.166;2023-02-11T21:06:47;6.20;91.60
6752;DHT22;3413;47.680;9.166;2023-02-11T21:11:50;6.20;91.50
6752;DHT22;3413;47.680;9.166;2023-02-11T21:16:53;6.00;91.50
6752;DHT22;3413;47.680;9.166;2023-02-11T21:21:55;6.00;91.40
6752;DHT22;3413;47.680;9.166;2023-02-11T21:27:01;5.90;91.40
6752;DHT22;3413;47.680;9.166;2023-02-11T21:32:03;5.90;91.40
6752;DHT22;3413;47.680;9.166;2023-02-11T21:37:05;5.80;91.40
6752;DHT22;3413;47.680;9.166;2023-02-11T21:42:08;5.80;91.40
6752;DHT22;3413;47.680;9.166;2023-02-11T21:47:10;5.90;91.40
6752;DHT22;3413;47.680;9.166;2023-02-11T21:52:12;5.80;91.40
6752;DHT22;3413;47.680;9.166;2023-02-11T21:57:14;5.70;91.60
6752;DHT22;3413;47.680;9.166;2023-02-11T22:02:16;5.70;91.30
6752;DHT22;3413;47.680;9.166;2023-02-11T22:07:18;5.50;91.30
6752;DHT22;3413;47.680;9.166;2023-02-11T22:12:21;5.50;91.30
6752;DHT22;3413;47.680;9.166;2023-02-11T22:17:23;5.50;91.30
6752;DHT22;3413;47.680;9.166;2023-02-11T22:22:26;5.40;91.20
6752;DHT22;3413;47.680;9.166;2023-02-11T22:27:29;5.40;91.30
6752;DHT22;3413;47.680;9.166;2023-02-11T22:32:31;5.40;91.30
6752;DHT22;3413;47.680;9.166;2023-02-11T22:37:33;5.40;91.30
6752;DHT22;3413;47.680;9.166;2023-02-11T22:42:35;5.40;91.30
6752;DHT22;3413;47.680;9.166;2023-02-11T22:47:37;5.40;91.20
6752;DHT22;3413;47.680;9.166;2023-02-11T22:52:39;5.40;91.20
6752;DHT22;3413;47.680;9.166;2023-02-11T22:57:41;5.30;91.20
6752;DHT22;3413;47.680;9.166;2023-02-11T23:02:43;5.20;91.20
6752;DHT22;3413;47.680;9.166;2023-02-11T23:07:45;5.20;91.20
6752;DHT22;3413;47.680;9.166;2023-02-11T23:12:47;5.10;91.10
6752;DHT22;3413;47.680;9.166;2023-02-11T23:17:49;5.00;91.00
6752;DHT22;3413;47.680;9.166;2023-02-11T23:22:51;4.90;91.00
6752;DHT22;3413;47.680;9.166;2023-02-11T23:27:53;4.90;91.00
6752;DHT22;3413;47.680;9.166;2023-02-11T23:32:55;4.80;91.10
6752;DHT22;3413;47.680;9.166;2023-02-11T23:37:57;4.80;91.00
6752;DHT22;3413;47.680;9.166;2023-02-11T23:42:59;4.80;91.10
6752;DHT22;3413;47.680;9.166;2023-02-11T23:48:01;4.80;91.10
6752;DHT22;3413;47.680;9.166;2023-02-11T23:53:03;4.90;91.10
6752;DHT22;3413;47.680;9.166;2023-02-11T23:58:05;4.90;91.10
